Time;durP1;ratioP1;P1;durP2;ratioP2;P2;SDS_P1;SDS_P2;PMS_P1;PMS_P2;Temp;Humidity;BMP_temperature;BMP_pressure;BME280_temperature;BME280_humidity;BME280_pressure;Samples;Min_cycle;Max_cycle;Signal;HPM_P1;HPM_P2
2022/05/17 00:00:19;;;;;;;11.32;4.80;;;;;;;16.52;67.17;99534.13;5191746;28;20089;-81
2022/05/17 00:03:10;;;;;;;11.13;4.80;;;;;;;16.37;67.01;99529.47;5198495;28;20559;-82
2022/05/17 00:06:01;;;;;;;9.63;3.97;;;;;;;16.37;65.94;99542.84;5189536;28;20073;-83
2022/05/17 00:08:51;;;;;;;10.75;3.90;;;;;;;16.32;66.07;99542.50;5200148;28;20053;-85
2022/05/17 00:11:44;;;;;;;8.70;4.18;;;;;;;16.33;66.02;99546.84;5195852;28;20057;-84
2022/05/17 00:14:34;;;;;;;9.75;4.35;;;;;;;16.25;66.13;99544.16;5192737;28;20053;-83
2022/05/17 00:17:24;;;;;;;7.97;4.57;;;;;;;16.23;65.54;99548.88;5198152;28;20053;-83
2022/05/17 00:20:16;;;;;;;11.88;4.75;;;;;;;16.03;65.41;99550.19;5186360;28;20061;-80
2022/05/17 00:23:08;;;;;;;10.30;4.93;;;;;;;15.98;66.11;99542.66;5198623;28;20088;-82
2022/05/17 00:25:58;;;;;;;7.40;4.70;;;;;;;15.80;66.62;99510.72;5197623;28;20076;-84
2022/05/17 00:28:48;;;;;;;9.18;5.18;;;;;;;15.92;66.41;99537.94;5202915;28;20089;-83
2022/05/17 00:31:39;;;;;;;12.50;4.57;;;;;;;15.71;66.00;99543.78;5181094;28;20064;-83
2022/05/17 00:34:29;;;;;;;8.55;4.60;;;;;;;15.60;66.37;99544.06;5195281;28;20080;-85
2022/05/17 00:37:20;;;;;;;9.48;4.45;;;;;;;15.74;67.41;99538.09;5184861;28;20054;-83
2022/05/17 00:40:12;;;;;;;12.10;5.22;;;;;;;15.95;67.46;99559.03;5187627;28;20056;-83
2022/05/17 00:43:02;;;;;;;11.23;5.40;;;;;;;15.98;67.73;99546.16;5188019;28;20516;-85
2022/05/17 00:45:53;;;;;;;7.93;4.78;;;;;;;15.94;66.89;99542.13;5188826;28;20137;-83
2022/05/17 00:48:43;;;;;;;9.73;4.95;;;;;;;15.82;66.45;99545.28;5201280;28;20041;-83
2022/05/17 00:51:34;;;;;;;9.63;5.20;;;;;;;15.60;66.28;99520.00;5173279;28;20056;-83
2022/05/17 00:54:26;;;;;;;8.98;4.85;;;;;;;15.68;66.15;99539.56;5208704;28;20128;-85
2022/05/17 00:57:54;;;;;;;10.10;4.95;;;;;;;15.68;67.19;99547.59;5183506;28;20056;-84
2022/05/17 01:01:02;;;;;;;13.13;5.35;;;;;;;15.73;67.55;99547.13;5183643;28;20045;-83
2022/05/17 01:03:56;;;;;;;8.50;5.10;;;;;;;15.46;67.81;99545.47;5191117;28;20093;-83
2022/05/17 01:07:02;;;;;;;;;;;;;;;15.47;68.19;99547.19;5207644;28;20116;-83
2022/05/17 01:09:53;;;;;;;13.68;4.88;;;;;;;15.41;67.92;99540.63;5221223;28;19931;-82
2022/05/17 01:12:43;;;;;;;7.15;4.60;;;;;;;15.27;67.23;99525.22;5196124;28;20048;-83
2022/05/17 01:15:34;;;;;;;12.07;6.03;;;;;;;15.55;68.72;99541.00;5195586;28;20058;-83
2022/05/17 01:18:25;;;;;;;10.18;6.35;;;;;;;15.62;68.63;99526.81;5187103;28;20042;-84
2022/05/17 01:21:15;;;;;;;13.95;5.65;;;;;;;15.33;68.64;99513.03;5205257;28;20050;-85
2022/05/17 01:24:06;;;;;;;10.15;5.72;;;;;;;15.37;68.81;99547.31;5193076;28;20448;-83
2022/05/17 01:27:05;;;;;;;12.70;5.75;;;;;;;15.24;68.03;99531.72;5193893;28;20096;-83
2022/05/17 01:29:56;;;;;;;11.75;5.82;;;;;;;15.20;68.88;99543.72;5197111;28;20063;-84
2022/05/17 01:32:46;;;;;;;10.35;5.15;;;;;;;15.19;68.60;99547.38;5209833;28;20059;-84
2022/05/17 01:35:36;;;;;;;14.65;5.40;;;;;;;15.18;68.53;99532.34;5199709;28;20062;-83
2022/05/17 01:38:28;;;;;;;9.05;5.45;;;;;;;15.28;68.48;99525.06;5210527;28;20046;-85
2022/05/17 01:41:21;;;;;;;12.43;5.70;;;;;;;15.31;68.80;99549.78;5210760;28;20059;-85
2022/05/17 01:44:11;;;;;;;8.57;5.47;;;;;;;15.19;68.17;99543.88;5214494;28;20077;-85
2022/05/17 01:47:02;;;;;;;10.60;5.03;;;;;;;14.97;67.61;99530.09;5232208;28;20052;-83
2022/05/17 01:49:52;;;;;;;11.50;5.30;;;;;;;14.94;68.15;99532.25;5206689;28;20068;-85
2022/05/17 01:52:44;;;;;;;12.07;5.75;;;;;;;15.34;68.21;99558.31;5198790;28;20052;-84
2022/05/17 01:55:35;;;;;;;11.88;5.95;;;;;;;15.21;68.31;99560.59;5183685;28;20061;-84
2022/05/17 01:58:25;;;;;;;9.63;5.75;;;;;;;14.98;68.02;99545.13;5199614;28;20052;-83
2022/05/17 02:01:15;;;;;;;9.80;5.70;;;;;;;14.80;68.41;99549.66;5212743;28;20076;-84
2022/05/17 02:04:06;;;;;;;14.45;5.55;;;;;;;14.70;67.74;99544.47;5203818;28;20049;-82
2022/05/17 02:06:56;;;;;;;9.27;5.57;;;;;;;14.78;68.27;99546.34;5200506;28;20622;-84
2022/05/17 02:09:47;;;;;;;10.50;5.13;;;;;;;14.71;67.77;99521.28;5196178;28;20033;-83
2022/05/17 02:12:38;;;;;;;9.45;5.85;;;;;;;14.97;67.42;99546.13;5202006;28;20061;-82
2022/05/17 02:15:29;;;;;;;9.93;5.32;;;;;;;14.77;67.16;99532.16;5204436;28;20135;-84
2022/05/17 02:18:19;;;;;;;9.20;5.90;;;;;;;14.65;67.27;99540.56;5193730;28;20046;-85
2022/05/17 02:21:09;;;;;;;7.45;5.25;;;;;;;14.55;68.48;99541.50;5197049;28;20054;-82
2022/05/17 02:24:01;;;;;;;7.97;5.20;;;;;;;14.50;68.00;99535.81;5195325;28;20056;-85
2022/05/17 02:26:51;;;;;;;8.63;4.47;;;;;;;14.38;66.75;99537.00;5205663;28;20059;-83
2022/05/17 02:29:44;;;;;;;8.73;4.72;;;;;;;14.41;66.41;99550.06;5200101;28;20057;-83
2022/05/17 02:32:34;;;;;;;11.57;4.40;;;;;;;14.26;67.87;99540.91;5197493;28;20056;-83
2022/05/17 02:35:25;;;;;;;7.57;4.90;;;;;;;14.23;67.13;99544.72;5191827;28;20160;-83
2022/05/17 02:38:15;;;;;;;9.55;4.53;;;;;;;14.27;67.73;99556.78;5189121;28;20057;-83
2022/05/17 02:41:05;;;;;;;8.40;5.10;;;;;;;14.42;68.29;99557.03;5196051;28;20539;-84
2022/05/17 02:43:56;;;;;;;8.35;5.15;;;;;;;14.36;68.37;99536.31;5199338;28;20054;-84
2022/05/17 02:46:46;;;;;;;9.65;5.20;;;;;;;14.33;68.49;99545.47;5195619;28;20065;-83
2022/05/17 02:49:38;;;;;;;10.35;5.22;;;;;;;14.16;69.66;99556.16;5199024;28;20531;-84
2022/05/17 02:52:29;;;;;;;10.05;5.78;;;;;;;14.04;69.59;99540.41;5171729;28;20419;-83
2022/05/17 02:55:19;;;;;;;10.93;5.30;;;;;;;14.22;68.92;99563.56;5195463;28;20537;-84
2022/05/17 02:58:10;;;;;;;11.40;6.07;;;;;;;14.21;69.47;99559.22;5185145;28;20042;-84
2022/05/17 03:01:01;;;;;;;9.73;5.03;;;;;;;14.15;68.15;99568.66;5191041;28;20053;-83
2022/05/17 03:03:52;;;;;;;9.25;5.45;;;;;;;14.06;68.49;99572.22;5171655;28;20053;-83
2022/05/17 03:06:43;;;;;;;9.88;5.55;;;;;;;14.09;68.17;99578.09;5193481;28;20072;-82
2022/05/17 03:09:36;;;;;;;6.50;4.97;;;;;;;14.05;68.07;99579.41;5211991;23;20065;31
2022/05/17 03:12:26;;;;;;;10.77;5.05;;;;;;;13.91;68.55;99590.59;5121609;28;20166;-73
2022/05/17 03:15:22;;;;;;;8.55;5.32;;;;;;;14.08;68.40;99589.75;5120412;28;20174;-74
2022/05/17 03:18:13;;;;;;;13.25;5.63;;;;;;;13.98;68.44;99586.34;5097440;29;20138;-74
2022/05/17 03:21:03;;;;;;;8.30;5.45;;;;;;;13.84;68.70;99601.03;5107682;29;20052;-73
2022/05/17 03:23:54;;;;;;;11.52;5.95;;;;;;;13.78;68.31;99582.97;5105911;29;20091;-74
2022/05/17 03:26:47;;;;;;;13.23;5.75;;;;;;;13.89;69.27;99587.22;5109550;29;20096;-73
2022/05/17 03:29:37;;;;;;;14.52;6.55;;;;;;;13.75;69.11;99572.59;5101082;29;20067;-73
2022/05/17 03:32:27;;;;;;;9.35;5.10;;;;;;;13.80;68.45;99599.63;5099124;29;20507;-73
2022/05/17 03:35:17;;;;;;;11.88;6.15;;;;;;;13.92;69.76;99602.09;5097735;29;20058;-74
2022/05/17 03:38:08;;;;;;;12.55;6.32;;;;;;;14.06;70.13;99599.72;5093634;29;20546;-74
2022/05/17 03:41:01;;;;;;;9.60;5.93;;;;;;;13.95;69.30;99591.97;5100705;29;20127;-74
2022/05/17 03:43:51;;;;;;;11.38;6.78;;;;;;;13.85;68.78;99589.34;5093560;29;20067;-73
2022/05/17 03:46:42;;;;;;;10.20;6.10;;;;;;;13.83;69.42;99609.16;5090958;29;20150;-73
2022/05/17 03:49:33;;;;;;;10.85;6.25;;;;;;;13.85;69.10;99613.34;5094681;29;20087;-73
2022/05/17 03:52:29;;;;;;;14.82;6.25;;;;;;;13.80;69.89;99614.78;5107944;29;20052;-73
2022/05/17 03:55:19;;;;;;;12.52;6.38;;;;;;;13.81;68.93;99619.13;5091470;29;20107;-72
2022/05/17 03:58:11;;;;;;;11.70;5.40;;;;;;;13.73;68.50;99613.69;5098717;29;20102;-73
2022/05/17 04:01:01;;;;;;;7.93;5.38;;;;;;;13.78;68.30;99619.44;5110873;29;20132;-73
2022/05/17 04:03:51;;;;;;;12.18;5.35;;;;;;;13.89;69.19;99623.72;5095413;29;20426;-73
2022/05/17 04:06:46;;;;;;;16.63;6.18;;;;;;;13.89;69.03;99627.22;5103588;29;20067;-73
2022/05/17 04:09:36;;;;;;;7.35;5.55;;;;;;;13.94;69.20;99630.28;5103766;29;20059;-73
2022/05/17 04:12:27;;;;;;;15.95;6.30;;;;;;;13.82;71.30;99628.81;5100053;29;20682;-74
2022/05/17 04:15:21;;;;;;;14.05;7.03;;;;;;;13.97;70.27;99631.78;5102930;29;20719;-74
2022/05/17 04:18:13;;;;;;;12.80;6.38;;;;;;;13.92;71.22;99636.75;5112414;29;20044;-73
2022/05/17 04:21:04;;;;;;;13.20;7.20;;;;;;;13.98;72.23;99637.00;5100783;29;20175;-75
2022/05/17 04:23:54;;;;;;;17.88;7.30;;;;;;;14.18;70.48;99644.88;5100597;29;20110;-75
2022/05/17 04:26:44;;;;;;;10.73;6.88;;;;;;;14.13;70.56;99641.81;5104034;29;20549;-76
2022/05/17 04:29:34;;;;;;;9.52;6.65;;;;;;;14.18;70.78;99640.38;5102144;29;20044;-79
2022/05/17 04:32:24;;;;;;;18.15;7.07;;;;;;;14.39;70.36;99652.56;5114919;29;20060;-74
2022/05/17 04:35:17;;;;;;;10.30;6.82;;;;;;;14.43;70.21;99654.75;5101694;29;20084;-73
2022/05/17 04:38:12;;;;;;;15.02;7.70;;;;;;;14.39;71.59;99648.06;5094568;29;20059;-74
2022/05/17 04:41:02;;;;;;;13.20;7.90;;;;;;;14.42;71.11;99639.75;5099023;29;20055;-72
2022/05/17 04:43:52;;;;;;;21.80;8.18;;;;;;;14.51;71.65;99662.06;5108651;29;20048;-74
2022/05/17 04:46:43;;;;;;;16.17;7.75;;;;;;;14.56;70.61;99641.06;5096545;29;20709;-76
2022/05/17 04:49:33;;;;;;;14.82;8.23;;;;;;;14.78;71.04;99659.28;5101954;29;20058;-76
2022/05/17 04:52:23;;;;;;;18.98;8.93;;;;;;;14.91;71.08;99658.06;5101632;29;20054;-75
2022/05/17 04:55:16;;;;;;;19.23;8.68;;;;;;;15.02;70.25;99650.63;5099965;29;20611;-75
2022/05/17 04:58:06;;;;;;;15.60;8.07;;;;;;;14.96;70.36;99661.09;5102009;29;20063;-76
2022/05/17 05:00:56;;;;;;;19.85;9.52;;;;;;;15.06;71.14;99661.81;5101038;29;20062;-75
2022/05/17 05:03:47;;;;;;;16.50;9.60;;;;;;;14.98;71.99;99670.63;5097918;29;20519;-77
2022/05/17 05:06:37;;;;;;;18.15;9.52;;;;;;;15.10;71.20;99662.34;5102288;29;20632;-73
2022/05/17 05:09:27;;;;;;;13.25;8.48;;;;;;;15.16;71.28;99643.03;5091049;29;20575;-73
2022/05/17 05:12:17;;;;;;;17.80;8.85;;;;;;;15.17;72.24;99647.41;5104455;29;20047;-72
2022/05/17 05:15:10;;;;;;;20.27;10.13;;;;;;;15.23;72.46;99654.75;5097166;29;20784;-72
2022/05/17 05:18:00;;;;;;;22.35;9.57;;;;;;;15.54;70.94;99641.75;5099638;29;20414;-69
2022/05/17 05:20:50;;;;;;;17.77;9.77;;;;;;;15.68;70.03;99662.56;5113728;29;20151;-69
2022/05/17 05:23:42;;;;;;;27.00;11.07;;;;;;;15.73;69.72;99654.91;5113900;29;20102;-69
2022/05/17 05:26:34;;;;;;;21.88;10.95;;;;;;;15.82;70.31;99668.28;5113746;28;20070;-71
2022/05/17 05:29:25;;;;;;;23.65;10.50;;;;;;;15.91;70.38;99662.81;5101724;29;20050;-71
2022/05/17 05:32:15;;;;;;;28.98;11.95;;;;;;;15.78;70.75;99658.91;5100467;29;20155;-72
2022/05/17 05:35:06;;;;;;;21.05;10.30;;;;;;;16.00;70.14;99655.66;5097893;29;20507;-69
2022/05/17 05:37:56;;;;;;;20.98;10.80;;;;;;;16.16;70.04;99662.91;5083041;29;20120;-69
2022/05/17 05:40:46;;;;;;;21.42;10.77;;;;;;;16.37;70.21;99667.78;5082176;29;20056;-69
2022/05/17 05:43:36;;;;;;;23.50;11.40;;;;;;;16.20;71.17;99661.56;5086164;29;20066;-70
2022/05/17 05:46:27;;;;;;;21.33;9.98;;;;;;;16.54;68.79;99668.66;5082820;29;20537;-71
2022/05/17 05:49:18;;;;;;;16.90;10.35;;;;;;;16.83;68.46;99671.72;5084755;29;20143;-70
2022/05/17 05:52:08;;;;;;;16.15;10.00;;;;;;;16.90;68.90;99664.69;5081831;29;20199;-70
2022/05/17 05:54:59;;;;;;;22.05;10.95;;;;;;;17.50;66.82;99673.28;5097160;29;20135;-70
2022/05/17 05:57:49;;;;;;;19.80;11.35;;;;;;;17.35;67.50;99667.78;5113798;29;20491;-71
2022/05/17 06:00:39;;;;;;;16.15;10.40;;;;;;;17.37;67.70;99682.69;5100402;29;20087;-70
2022/05/17 06:03:32;;;;;;;23.15;11.02;;;;;;;17.70;67.47;99687.16;5100286;29;20099;-70
2022/05/17 06:06:22;;;;;;;19.38;10.90;;;;;;;17.66;67.00;99673.25;5101498;29;20058;-71
2022/05/17 06:09:12;;;;;;;29.63;10.95;;;;;;;17.92;66.85;99685.59;5101616;29;20618;-71
2022/05/17 06:12:02;;;;;;;29.63;11.18;;;;;;;18.08;65.92;99674.78;5086877;29;20131;-71
2022/05/17 06:14:52;;;;;;;23.42;10.52;;;;;;;18.11;66.13;99679.78;5085972;29;20067;-71
2022/05/17 06:17:42;;;;;;;20.27;10.68;;;;;;;18.33;65.17;99680.00;5100131;29;20445;-71
2022/05/17 06:20:35;;;;;;;21.67;10.50;;;;;;;18.37;65.49;99678.63;5095586;29;20058;-70
2022/05/17 06:23:26;;;;;;;18.90;9.35;;;;;;;18.32;65.31;99660.38;5101296;29;20103;-70
2022/05/17 06:26:16;;;;;;;17.35;10.18;;;;;;;18.69;65.74;99669.53;5097857;29;20509;-70
2022/05/17 06:29:07;;;;;;;27.20;9.95;;;;;;;18.99;64.66;99683.91;5101338;29;20059;-70
2022/05/17 06:31:57;;;;;;;18.83;10.05;;;;;;;19.01;64.88;99685.41;5097624;29;20089;-70
2022/05/17 06:34:48;;;;;;;19.45;10.02;;;;;;;19.20;64.50;99681.38;5082180;29;20059;-70
2022/05/17 06:37:38;;;;;;;22.15;10.05;;;;;;;19.35;62.99;99680.56;5097841;29;20111;-70
2022/05/17 06:40:28;;;;;;;18.10;9.13;;;;;;;19.65;62.38;99673.38;5087954;29;20054;-71
2022/05/17 06:43:18;;;;;;;26.52;9.50;;;;;;;19.53;62.63;99681.03;5099689;29;20555;-70
2022/05/17 06:46:08;;;;;;;11.80;8.07;;;;;;;19.64;63.58;99682.47;5103461;29;20206;-71
2022/05/17 06:48:59;;;;;;;19.88;8.45;;;;;;;19.95;61.56;99679.56;5117458;29;20054;-71
2022/05/17 06:51:49;;;;;;;16.27;8.63;;;;;;;20.38;59.51;99677.78;5117001;29;20111;-72
2022/05/17 06:54:41;;;;;;;16.02;8.52;;;;;;;20.14;60.87;99683.53;5092315;29;20092;-71
2022/05/17 06:57:32;;;;;;;19.50;9.48;;;;;;;20.53;60.39;99675.09;5085935;29;20115;-71
2022/05/17 07:00:22;;;;;;;19.52;8.45;;;;;;;20.94;57.61;99684.38;5087832;29;20138;-71
2022/05/17 07:03:14;;;;;;;16.20;8.68;;;;;;;20.90;59.79;99686.66;5095761;29;20071;-71
2022/05/17 07:06:04;;;;;;;21.95;8.73;;;;;;;21.35;58.92;99685.34;5099933;29;20466;-71
2022/05/17 07:08:54;;;;;;;16.70;7.90;;;;;;;22.07;57.65;99682.44;5103920;29;20059;-71
2022/05/17 07:14:53;;;;;;;14.07;7.85;;;;;;;23.77;52.42;99681.16;5114433;29;20052;-71
2022/05/17 07:17:43;;;;;;;16.55;7.82;;;;;;;24.70;50.44;99680.75;5102892;29;20520;-72
2022/05/17 07:20:33;;;;;;;14.80;7.78;;;;;;;25.19;49.72;99674.53;5085603;29;20187;-68
2022/05/17 07:23:26;;;;;;;17.52;7.05;;;;;;;25.83;49.02;99682.50;5084335;29;20436;-68
2022/05/17 07:26:18;;;;;;;14.50;7.13;;;;;;;25.69;46.87;99657.34;5104569;29;20438;-70
2022/05/17 07:29:10;;;;;;;11.35;6.60;;;;;;;26.17;46.56;99679.16;5103439;29;20427;-69
2022/05/17 07:32:01;;;;;;;10.90;6.75;;;;;;;26.57;46.95;99659.59;5087317;29;20054;-70
2022/05/17 07:34:51;;;;;;;15.85;6.45;;;;;;;27.25;43.95;99681.97;5084997;29;20124;-69
2022/05/17 07:37:42;;;;;;;11.38;6.20;;;;;;;27.52;44.28;99672.28;5104373;29;20168;-69
2022/05/17 07:40:34;;;;;;;14.38;6.50;;;;;;;27.72;42.66;99682.81;5102044;29;20089;-70
2022/05/17 07:43:24;;;;;;;10.85;6.68;;;;;;;27.70;42.94;99673.22;5103692;29;20479;-69
2022/05/17 07:46:16;;;;;;;12.52;5.63;;;;;;;28.10;39.42;99660.44;5085872;29;20067;-70
2022/05/17 07:49:06;;;;;;;14.23;5.78;;;;;;;28.12;40.33;99659.41;5097254;29;20214;-71
2022/05/17 07:51:57;;;;;;;15.35;4.90;;;;;;;28.40;41.05;99673.06;5085065;29;20059;-71
2022/05/17 07:54:47;;;;;;;11.13;4.93;;;;;;;28.02;42.25;99670.94;5098975;29;20426;-71
2022/05/17 07:57:38;;;;;;;11.45;5.65;;;;;;;28.70;39.68;99671.97;5103139;29;20056;-71
2022/05/17 08:00:28;;;;;;;13.10;5.40;;;;;;;28.77;37.58;99657.09;5103013;29;20655;-71
2022/05/17 08:03:19;;;;;;;8.52;4.20;;;;;;;28.98;39.55;99676.53;5104785;29;20106;-71
2022/05/17 08:06:10;;;;;;;12.30;4.03;;;;;;;29.24;39.16;99661.44;5099123;29;20187;-71
2022/05/17 08:09:00;;;;;;;8.52;4.07;;;;;;;28.95;37.50;99674.31;5086998;29;20415;-71
2022/05/17 08:11:51;;;;;;;11.48;3.95;;;;;;;29.07;36.76;99669.59;5092846;29;20184;-71
2022/05/17 08:14:44;;;;;;;12.35;3.72;;;;;;;28.28;37.91;99667.63;5103474;29;20147;-72
2022/05/17 08:17:34;;;;;;;6.82;3.35;;;;;;;27.80;39.42;99668.00;5084689;29;20518;-72
2022/05/17 08:20:25;;;;;;;14.63;3.53;;;;;;;28.99;38.38;99665.38;5087962;29;20517;-71
2022/05/17 08:23:15;;;;;;;10.25;3.90;;;;;;;29.07;39.11;99666.06;5084189;29;20056;-71
2022/05/17 08:29:14;;;;;;;9.98;3.75;;;;;;;29.55;37.53;99654.50;5103083;29;20099;-70
2022/05/17 08:35:14;;;;;;;8.48;3.33;;;;;;;29.79;35.29;99657.03;5102644;29;20518;-71
2022/05/17 08:38:05;;;;;;;4.90;2.50;;;;;;;28.45;36.13;99661.44;5102835;29;20186;-70
2022/05/17 08:41:05;;;;;;;6.40;2.42;;;;;;;28.40;34.66;99662.16;5090923;29;20103;-72
2022/05/17 08:43:57;;;;;;;6.32;2.70;;;;;;;26.96;38.08;99662.78;5107310;29;20063;-70
2022/05/17 08:47:05;;;;;;;7.43;2.72;;;;;;;28.08;38.96;99653.63;5083993;29;20122;-72
2022/05/17 08:50:22;;;;;;;5.40;2.30;;;;;;;29.32;35.72;99649.25;5087401;29;20054;-71
2022/05/17 08:53:16;;;;;;;10.55;2.45;;;;;;;29.40;36.71;99637.88;5099028;29;20454;-71
2022/05/17 08:56:09;;;;;;;7.90;3.03;;;;;;;29.93;35.15;99656.41;5093972;29;20111;-70
2022/05/17 08:59:01;;;;;;;9.23;3.20;;;;;;;29.79;34.41;99646.91;5088586;29;20063;-72
2022/05/17 09:02:00;;;;;;;9.38;3.15;;;;;;;28.45;35.13;99654.06;5082033;29;20147;-72
2022/05/17 09:04:57;;;;;;;8.98;2.60;;;;;;;29.21;38.14;99656.47;5091587;29;20088;-72
2022/05/17 09:07:55;;;;;;;13.27;3.50;;;;;;;29.25;36.65;99646.69;5095525;29;20066;-72
2022/05/17 09:10:50;;;;;;;6.70;3.17;;;;;;;28.95;37.42;99645.09;5113257;29;20476;-71
2022/05/17 09:13:59;;;;;;;7.80;2.90;;;;;;;28.06;36.97;99634.75;5100851;29;20061;-71
2022/05/17 09:17:03;;;;;;;13.20;3.00;;;;;;;28.39;37.80;99643.28;5111966;29;20054;-71
2022/05/17 09:19:54;;;;;;;8.48;2.72;;;;;;;28.55;36.49;99637.88;5089911;29;20047;-71
2022/05/17 09:22:44;;;;;;;13.82;3.28;;;;;;;28.50;38.22;99637.78;5089931;29;20082;-71
2022/05/17 09:26:02;;;;;;;10.05;3.50;;;;;;;28.91;38.01;99640.41;5099744;29;20453;-71
2022/05/17 09:29:04;;;;;;;8.80;3.28;;;;;;;29.35;35.84;99624.97;5089884;29;20048;-72
2022/05/17 09:32:00;;;;;;;7.55;2.55;;;;;;;29.65;35.82;99630.06;5083770;29;20060;-71
2022/05/17 09:35:13;;;;;;;10.65;2.95;;;;;;;29.74;35.07;99644.13;5081051;29;20074;-72
2022/05/17 09:38:05;;;;;;;5.75;2.95;;;;;;;30.23;35.78;99640.59;5113270;29;20406;-71
2022/05/17 09:40:57;;;;;;;9.70;3.15;;;;;;;30.27;35.88;99650.78;5096640;29;20458;-71
2022/05/17 09:43:56;;;;;;;11.20;3.30;;;;;;;28.36;38.88;99647.31;5100420;29;20194;-72
2022/05/17 09:46:48;;;;;;;8.00;2.83;;;;;;;29.43;37.64;99643.66;5097900;29;20635;-72
2022/05/17 09:53:04;;;;;;;6.72;2.45;;;;;;;29.14;34.76;99639.41;5101089;29;20064;-71
2022/05/17 09:55:56;;;;;;;6.75;2.40;;;;;;;28.77;36.06;99637.16;5114095;29;20059;-71
2022/05/17 09:58:46;;;;;;;7.60;2.80;;;;;;;27.60;37.03;99628.31;5086755;29;20075;-71
2022/05/17 10:01:50;;;;;;;5.07;2.33;;;;;;;28.59;34.85;99630.03;5081673;29;20108;-69
2022/05/17 10:04:42;;;;;;;7.32;2.65;;;;;;;29.42;31.87;99633.81;5092808;29;20055;-71
2022/05/17 10:07:32;;;;;;;7.07;2.38;;;;;;;29.09;34.72;99612.03;5080266;29;20056;-70
2022/05/17 10:10:22;;;;;;;5.63;2.35;;;;;;;26.90;36.65;99629.16;5107956;29;20055;-71
2022/05/17 10:13:25;;;;;;;8.85;2.55;;;;;;;27.96;35.00;99626.38;5104076;29;20067;-71
2022/05/17 10:16:28;;;;;;;7.35;2.88;;;;;;;27.77;38.68;99633.06;5118094;29;20052;-71
2022/05/17 10:19:35;;;;;;;10.98;3.40;;;;;;;27.36;39.45;99634.88;5104865;29;20062;-71
2022/05/17 10:22:26;;;;;;;9.82;3.22;;;;;;;27.54;37.68;99623.00;5105227;29;20083;-72
2022/05/17 10:25:19;;;;;;;9.20;2.92;;;;;;;26.83;40.30;99633.06;5104272;29;20051;-71
2022/05/17 10:28:10;;;;;;;;;;;;;;;28.08;36.92;99618.16;5105639;29;20114;-71
2022/05/17 10:31:23;;;;;;;6.05;2.60;;;;;;;27.15;36.98;99625.41;5117322;29;19929;-71
2022/05/17 10:34:30;;;;;;;6.32;2.60;;;;;;;28.41;37.67;99568.34;5105396;29;20061;-71
2022/05/17 10:37:25;;;;;;;8.48;2.50;;;;;;;29.12;34.78;99617.00;5117792;29;20506;-71
2022/05/17 10:40:20;;;;;;;9.55;2.70;;;;;;;27.57;36.26;99620.63;5117993;29;20190;-71
2022/05/17 10:43:24;;;;;;;5.15;2.28;;;;;;;28.34;35.17;99609.41;5104722;29;20054;-71
2022/05/17 10:46:18;;;;;;;;;;;;;;;28.52;34.31;99607.53;5117262;29;20055;-71
2022/05/17 10:49:41;;;;;;;4.93;2.97;;;;;;;29.00;38.06;99598.78;5105210;29;20300;-71
2022/05/17 10:53:04;;;;;;;5.28;2.53;;;;;;;28.56;33.36;99597.78;5103608;29;20058;-71
2022/05/17 10:56:27;;;;;;;4.78;2.30;;;;;;;28.28;35.49;99599.47;5110088;29;20158;-71
2022/05/17 10:59:26;;;;;;;6.63;2.70;;;;;;;28.78;34.19;99595.97;5098451;29;20090;-71
2022/05/17 11:03:01;;;;;;;7.85;2.53;;;;;;;28.65;35.91;99598.22;5102980;29;20055;-71
2022/05/17 11:06:27;;;;;;;7.90;2.92;;;;;;;28.63;34.21;99594.91;5093648;29;20430;-72
2022/05/17 11:09:24;;;;;;;7.22;2.05;;;;;;;28.76;35.48;99576.28;5096233;29;20056;-71
2022/05/17 11:12:19;;;;;;;3.97;2.22;;;;;;;28.58;35.62;99582.00;5104628;29;20063;-71
2022/05/17 11:15:20;;;;;;;4.63;1.67;;;;;;;28.67;34.33;99585.13;5116932;29;20537;-71
2022/05/17 11:18:19;;;;;;;5.18;1.55;;;;;;;27.83;36.73;99578.44;5103198;29;20092;-71
2022/05/17 11:21:37;;;;;;;5.40;1.90;;;;;;;27.69;32.85;99576.22;5113904;29;20089;-71
2022/05/17 11:24:45;;;;;;;11.23;1.85;;;;;;;27.78;33.15;99572.91;5103543;29;20062;-72
2022/05/17 11:27:48;;;;;;;8.57;1.90;;;;;;;27.98;34.40;99575.19;5103528;29;20474;-72
2022/05/17 11:30:48;;;;;;;6.30;1.60;;;;;;;27.73;34.01;99575.47;5103281;29;20051;-71
2022/05/17 11:33:40;;;;;;;4.10;1.50;;;;;;;28.12;34.99;99566.72;5100033;29;20089;-71
2022/05/17 11:36:31;;;;;;;4.80;1.80;;;;;;;26.33;34.54;99573.56;5103934;29;20067;-71
2022/05/17 11:39:41;;;;;;;4.18;1.40;;;;;;;27.26;34.69;99566.59;5102901;29;20474;-71
2022/05/17 11:46:24;;;;;;;8.73;1.75;;;;;;;27.84;34.01;99561.00;5103282;29;20116;-71
2022/05/17 11:49:15;;;;;;;4.40;1.50;;;;;;;28.41;34.88;99564.78;5086844;29;20135;-71
2022/05/17 11:52:12;;;;;;;10.23;1.85;;;;;;;28.27;33.59;99553.34;5098182;29;20063;-71
2022/05/17 11:55:05;;;;;;;6.13;1.52;;;;;;;28.69;33.68;99553.81;5103677;29;20226;-72
2022/05/17 11:57:58;;;;;;;5.40;1.83;;;;;;;27.75;32.69;99551.53;5103659;29;20149;-72
2022/05/17 12:00:49;;;;;;;5.38;1.60;;;;;;;27.64;33.47;99541.50;5102245;29;20578;-71
2022/05/17 12:03:50;;;;;;;7.05;1.88;;;;;;;28.12;34.41;99542.19;5095553;29;20063;-72
2022/05/17 12:06:48;;;;;;;5.05;1.83;;;;;;;28.19;34.34;99543.66;5084508;29;20565;-71
2022/05/17 12:09:49;;;;;;;3.13;1.50;;;;;;;28.23;34.11;99544.81;5099315;29;20104;-72
2022/05/17 12:13:07;;;;;;;3.95;1.80;;;;;;;28.08;34.65;99533.66;5110626;29;20107;-72
2022/05/17 12:15:58;;;;;;;5.50;1.60;;;;;;;27.83;34.85;99520.38;5103156;29;20054;-71
2022/05/17 12:18:53;;;;;;;4.57;1.20;;;;;;;27.37;33.62;99533.88;5102352;29;20091;-72
2022/05/17 12:22:02;;;;;;;;;;;;;;;28.00;33.16;99504.88;5115875;29;20052;-70
2022/05/17 12:25:07;;;;;;;3.35;1.50;;;;;;;27.83;34.82;99515.75;5103027;29;19926;-71
2022/05/17 12:27:59;;;;;;;5.13;1.73;;;;;;;26.98;37.00;99527.28;5102820;29;20148;-70
2022/05/17 12:30:59;;;;;;;8.55;1.95;;;;;;;27.63;35.97;99518.88;5115347;29;20449;-70
2022/05/17 12:33:50;;;;;;;4.95;1.58;;;;;;;27.58;34.00;99513.34;5102513;29;20083;-70
2022/05/17 12:36:40;;;;;;;3.47;1.55;;;;;;;27.71;35.50;99509.50;5101984;29;20453;-71
2022/05/17 12:43:02;;;;;;;3.72;1.77;;;;;;;27.56;36.18;99504.59;5097229;29;20526;-70
2022/05/17 12:45:53;;;;;;;6.75;1.60;;;;;;;27.41;37.33;99501.53;5097299;29;20064;-71
2022/05/17 12:48:50;;;;;;;5.00;1.67;;;;;;;26.92;37.68;99503.72;5088262;29;20088;-71
2022/05/17 12:51:41;;;;;;;10.23;1.58;;;;;;;27.02;37.58;99484.09;5083805;29;20048;-71
2022/05/17 12:54:34;;;;;;;3.00;1.60;;;;;;;27.07;37.49;99487.75;5096940;29;20056;-70
2022/05/17 12:57:35;;;;;;;3.03;1.35;;;;;;;26.99;38.14;99487.28;5085095;29;20059;-71
2022/05/17 13:00:29;;;;;;;6.43;1.58;;;;;;;27.23;37.08;99491.66;5098194;29;20103;-71
2022/05/17 13:03:22;;;;;;;;;;;;;;;27.11;37.17;99486.19;5084595;29;20495;-71
2022/05/17 13:06:12;;;;;;;7.55;1.60;;;;;;;27.32;37.11;99476.59;5096222;29;19930;-71
2022/05/17 13:09:06;;;;;;;5.20;1.50;;;;;;;27.11;36.37;99472.59;5083570;29;20060;-71
2022/05/17 13:11:56;;;;;;;5.70;1.70;;;;;;;26.69;37.41;99480.94;5072614;29;20088;-71
2022/05/17 13:14:50;;;;;;;4.63;1.65;;;;;;;26.27;36.96;99482.91;5095482;29;20059;-71
2022/05/17 13:17:43;;;;;;;7.47;1.35;;;;;;;26.36;36.14;99470.63;5098059;29;20062;-70
2022/05/17 13:20:33;;;;;;;4.53;1.63;;;;;;;26.69;37.33;99463.81;5101273;29;20051;-70
2022/05/17 13:23:27;;;;;;;3.88;1.50;;;;;;;27.02;36.73;99463.16;5114581;29;20059;-71
2022/05/17 13:26:25;;;;;;;7.35;1.50;;;;;;;26.78;35.77;99416.09;5103873;28;20087;-71
2022/05/17 13:29:33;;;;;;;4.32;1.55;;;;;;;27.16;35.48;99461.03;5117206;29;20522;-68
2022/05/17 13:32:26;;;;;;;3.55;1.50;;;;;;;27.20;35.85;99455.94;5112604;29;20211;-68
2022/05/17 13:35:21;;;;;;;5.25;2.03;;;;;;;27.03;36.28;99444.94;5103219;29;20107;-68
2022/05/17 13:38:17;;;;;;;5.10;1.50;;;;;;;26.98;35.70;99450.25;5116627;29;20138;-68
2022/05/17 13:41:39;;;;;;;3.38;1.50;;;;;;;26.23;35.31;99451.81;5121024;29;20396;-68
2022/05/17 13:44:39;;;;;;;2.83;1.40;;;;;;;26.90;36.96;99452.28;5121429;29;20319;-67
2022/05/17 13:47:39;;;;;;;6.38;1.52;;;;;;;27.14;35.88;99436.75;5120770;28;20061;-67
2022/05/17 13:50:31;;;;;;;3.60;1.58;;;;;;;27.42;34.40;99440.59;5108403;28;20051;-67
2022/05/17 13:53:22;;;;;;;5.80;1.58;;;;;;;27.28;34.54;99441.91;5101793;29;20483;-67